sensor_id;sensor_type;location;lat;lon;timestamp;pressure;altitude;pressure_sealevel;temperature;humidity
818;BME280;391;51.052;6.954;2023-03-01T00:00:26;102264.97;;;3.89;54.65
818;BME280;391;51.052;6.954;2023-03-01T00:02:29;102269.22;;;3.88;55.27
818;BME280;391;51.052;6.954;2023-03-01T00:04:32;102270.75;;;3.86;54.75
818;BME280;391;51.052;6.954;2023-03-01T00:06:37;102267.59;;;3.79;55.34
818;BME280;391;51.052;6.954;2023-03-01T00:08:42;102268.13;;;3.64;55.07
818;BME280;391;51.052;6.954;2023-03-01T00:10:45;102267.63;;;3.58;55.63
818;BME280;391;51.052;6.954;2023-03-01T00:12:49;102267.53;;;3.57;55.69
818;BME280;391;51.052;6.954;2023-03-01T00:14:52;102262.63;;;3.60;55.79
818;BME280;391;51.052;6.954;2023-03-01T00:16:56;102266.97;;;3.61;55.01
818;BME280;391;51.052;6.954;2023-03-01T00:18:59;102267.38;;;3.65;54.97
818;BME280;391;51.052;6.954;2023-03-01T00:21:03;102270.97;;;3.67;54.84
818;BME280;391;51.052;6.954;2023-03-01T00:23:06;102267.63;;;3.58;55.59
818;BME280;391;51.052;6.954;2023-03-01T00:25:11;102264.16;;;3.58;55.44
818;BME280;391;51.052;6.954;2023-03-01T00:27:14;102260.44;;;3.54;55.33
818;BME280;391;51.052;6.954;2023-03-01T00:29:18;102261.09;;;3.52;55.78
818;BME280;391;51.052;6.954;2023-03-01T00:31:23;102227.53;;;3.20;55.43
818;BME280;391;51.052;6.954;2023-03-01T00:33:27;102262.00;;;3.42;55.86
818;BME280;391;51.052;6.954;2023-03-01T00:35:32;102256.75;;;3.41;56.14
818;BME280;391;51.052;6.954;2023-03-01T00:37:35;102262.41;;;3.47;55.68
818;BME280;391;51.052;6.954;2023-03-01T00:39:38;102256.19;;;3.45;55.44
818;BME280;391;51.052;6.954;2023-03-01T00:41:43;102260.09;;;3.40;55.73
818;BME280;391;51.052;6.954;2023-03-01T00:43:47;102257.09;;;3.45;55.76
818;BME280;391;51.052;6.954;2023-03-01T00:45:50;102264.19;;;3.48;55.61
818;BME280;391;51.052;6.954;2023-03-01T00:47:54;102254.16;;;3.51;55.36
818;BME280;391;51.052;6.954;2023-03-01T00:49:58;102248.72;;;3.48;55.57
818;BME280;391;51.052;6.954;2023-03-01T00:52:01;102250.94;;;3.43;55.40
818;BME280;391;51.052;6.954;2023-03-01T00:54:05;102251.78;;;3.22;56.22
818;BME280;391;51.052;6.954;2023-03-01T00:56:10;102244.59;;;2.98;56.06
818;BME280;391;51.052;6.954;2023-03-01T00:58:15;102235.47;;;2.71;56.49
818;BME280;391;51.052;6.954;2023-03-01T01:00:19;102239.56;;;2.59;56.98
818;BME280;391;51.052;6.954;2023-03-01T01:02:23;102267.00;;;2.48;57.22
818;BME280;391;51.052;6.954;2023-03-01T01:04:26;102247.81;;;2.45;57.23
818;BME280;391;51.052;6.954;2023-03-01T01:06:32;102250.66;;;2.48;57.10
818;BME280;391;51.052;6.954;2023-03-01T01:08:35;102242.41;;;2.62;57.39
818;BME280;391;51.052;6.954;2023-03-01T01:10:39;102242.81;;;2.77;57.73
818;BME280;391;51.052;6.954;2023-03-01T01:12:43;102133.66;;;2.34;57.13
818;BME280;391;51.052;6.954;2023-03-01T01:14:50;102191.72;;;2.71;57.03
818;BME280;391;51.052;6.954;2023-03-01T01:16:53;102237.00;;;2.99;57.16
818;BME280;391;51.052;6.954;2023-03-01T01:18:58;102226.94;;;3.02;57.23
818;BME280;391;51.052;6.954;2023-03-01T01:21:07;102228.72;;;3.03;57.03
818;BME280;391;51.052;6.954;2023-03-01T01:23:10;102227.31;;;3.07;57.28
818;BME280;391;51.052;6.954;2023-03-01T01:25:14;102196.16;;;2.94;56.91
818;BME280;391;51.052;6.954;2023-03-01T01:27:17;102221.88;;;3.14;57.24
818;BME280;391;51.052;6.954;2023-03-01T01:29:20;102216.47;;;3.11;57.07
818;BME280;391;51.052;6.954;2023-03-01T01:31:25;102213.78;;;3.09;56.83
818;BME280;391;51.052;6.954;2023-03-01T01:33:30;102210.66;;;3.13;56.61
818;BME280;391;51.052;6.954;2023-03-01T01:35:33;102200.50;;;3.15;57.02
818;BME280;391;51.052;6.954;2023-03-01T01:37:37;102203.09;;;3.15;57.09
818;BME280;391;51.052;6.954;2023-03-01T01:39:40;102199.84;;;3.17;57.25
818;BME280;391;51.052;6.954;2023-03-01T01:41:44;102197.03;;;3.14;56.56
818;BME280;391;51.052;6.954;2023-03-01T01:43:48;102182.59;;;3.06;57.02
818;BME280;391;51.052;6.954;2023-03-01T01:45:55;102191.13;;;3.05;56.75
818;BME280;391;51.052;6.954;2023-03-01T01:48:05;102125.88;;;2.75;57.02
818;BME280;391;51.052;6.954;2023-03-01T01:50:15;102188.56;;;2.95;57.18
818;BME280;391;51.052;6.954;2023-03-01T01:52:24;102180.94;;;2.97;57.23
818;BME280;391;51.052;6.954;2023-03-01T01:54:34;102180.84;;;2.95;56.60
818;BME280;391;51.052;6.954;2023-03-01T01:56:44;102170.81;;;2.88;57.05
818;BME280;391;51.052;6.954;2023-03-01T01:58:51;102174.69;;;2.83;57.16
818;BME280;391;51.052;6.954;2023-03-01T02:00:54;102166.47;;;2.77;57.31
818;BME280;391;51.052;6.954;2023-03-01T02:03:02;102165.97;;;2.71;57.05
818;BME280;391;51.052;6.954;2023-03-01T02:05:11;102162.84;;;2.65;57.44
818;BME280;391;51.052;6.954;2023-03-01T02:07:20;102163.00;;;2.56;57.67
818;BME280;391;51.052;6.954;2023-03-01T02:09:24;102156.19;;;2.47;57.42
818;BME280;391;51.052;6.954;2023-03-01T02:11:30;102155.16;;;2.35;57.32
818;BME280;391;51.052;6.954;2023-03-01T02:13:34;102163.91;;;2.37;57.86
818;BME280;391;51.052;6.954;2023-03-01T02:15:39;102155.81;;;2.42;58.28
818;BME280;391;51.052;6.954;2023-03-01T02:17:43;102161.31;;;2.37;58.14
818;BME280;391;51.052;6.954;2023-03-01T02:19:59;102162.13;;;2.36;58.46
818;BME280;391;51.052;6.954;2023-03-01T02:22:15;102156.56;;;2.31;58.67
818;BME280;391;51.052;6.954;2023-03-01T02:24:27;102164.28;;;2.31;58.77
818;BME280;391;51.052;6.954;2023-03-01T02:26:40;102166.22;;;2.34;59.19
818;BME280;391;51.052;6.954;2023-03-01T02:28:46;102161.84;;;2.33;58.70
818;BME280;391;51.052;6.954;2023-03-01T02:30:50;102166.09;;;2.32;59.16
818;BME280;391;51.052;6.954;2023-03-01T02:33:11;102169.31;;;2.30;58.56
818;BME280;391;51.052;6.954;2023-03-01T02:35:16;102178.97;;;2.32;58.54
818;BME280;391;51.052;6.954;2023-03-01T02:37:21;102172.41;;;2.36;59.18
818;BME280;391;51.052;6.954;2023-03-01T02:39:30;102133.28;;;2.20;58.95
818;BME280;391;51.052;6.954;2023-03-01T02:41:38;102159.16;;;2.41;58.74
818;BME280;391;51.052;6.954;2023-03-01T02:43:42;102162.38;;;2.29;59.06
818;BME280;391;51.052;6.954;2023-03-01T02:45:50;102161.84;;;2.12;59.19
818;BME280;391;51.052;6.954;2023-03-01T02:47:56;102154.63;;;2.08;59.21
818;BME280;391;51.052;6.954;2023-03-01T02:50:12;102116.41;;;1.83;59.16
818;BME280;391;51.052;6.954;2023-03-01T02:52:28;102157.34;;;2.10;59.29
818;BME280;391;51.052;6.954;2023-03-01T02:54:38;102154.00;;;2.01;59.29
818;BME280;391;51.052;6.954;2023-03-01T02:56:44;102117.31;;;1.83;59.51
818;BME280;391;51.052;6.954;2023-03-01T02:58:52;102147.41;;;2.04;59.60
818;BME280;391;51.052;6.954;2023-03-01T03:00:57;102152.44;;;2.03;59.70
818;BME280;391;51.052;6.954;2023-03-01T03:03:03;102152.56;;;2.04;59.79
818;BME280;391;51.052;6.954;2023-03-01T03:05:09;102145.38;;;2.00;60.17
818;BME280;391;51.052;6.954;2023-03-01T03:07:13;102145.72;;;1.95;59.78
818;BME280;391;51.052;6.954;2023-03-01T03:09:17;102141.75;;;1.98;59.92
818;BME280;391;51.052;6.954;2023-03-01T03:11:21;102133.53;;;2.02;60.19
818;BME280;391;51.052;6.954;2023-03-01T03:13:25;102125.81;;;2.02;59.70
818;BME280;391;51.052;6.954;2023-03-01T03:15:35;102129.66;;;2.07;59.67
818;BME280;391;51.052;6.954;2023-03-01T03:17:42;102132.22;;;2.07;59.69
818;BME280;391;51.052;6.954;2023-03-01T03:19:47;102142.25;;;2.04;59.68
818;BME280;391;51.052;6.954;2023-03-01T03:21:50;102137.66;;;2.00;59.40
818;BME280;391;51.052;6.954;2023-03-01T03:23:56;102134.94;;;1.99;59.86
818;BME280;391;51.052;6.954;2023-03-01T03:26:00;102128.38;;;2.02;59.79
818;BME280;391;51.052;6.954;2023-03-01T03:28:06;102131.72;;;2.01;59.86
818;BME280;391;51.052;6.954;2023-03-01T03:30:14;102125.06;;;2.03;59.95
818;BME280;391;51.052;6.954;2023-03-01T03:32:18;102129.53;;;2.06;59.74
818;BME280;391;51.052;6.954;2023-03-01T03:34:23;102125.97;;;2.04;59.75
818;BME280;391;51.052;6.954;2023-03-01T03:36:26;102126.31;;;1.98;59.75
818;BME280;391;51.052;6.954;2023-03-01T03:38:30;102128.13;;;1.99;59.72
818;BME280;391;51.052;6.954;2023-03-01T03:40:36;102127.22;;;1.99;59.78
818;BME280;391;51.052;6.954;2023-03-01T03:42:39;102130.84;;;2.01;59.79
818;BME280;391;51.052;6.954;2023-03-01T03:44:43;102132.25;;;1.97;59.63
818;BME280;391;51.052;6.954;2023-03-01T03:46:46;102129.53;;;1.96;59.76
818;BME280;391;51.052;6.954;2023-03-01T03:48:50;102127.88;;;1.96;59.45
818;BME280;391;51.052;6.954;2023-03-01T03:50:56;102130.56;;;1.98;59.72
818;BME280;391;51.052;6.954;2023-03-01T03:53:00;102120.00;;;1.95;59.68
818;BME280;391;51.052;6.954;2023-03-01T03:55:05;102122.72;;;1.96;59.71
818;BME280;391;51.052;6.954;2023-03-01T03:57:12;102128.50;;;1.94;59.73
818;BME280;391;51.052;6.954;2023-03-01T03:59:16;102112.69;;;1.89;59.66
818;BME280;391;51.052;6.954;2023-03-01T04:01:20;102111.25;;;1.83;59.99
818;BME280;391;51.052;6.954;2023-03-01T04:03:24;102105.09;;;1.81;59.78
818;BME280;391;51.052;6.954;2023-03-01T04:05:28;102110.88;;;1.78;59.89
818;BME280;391;51.052;6.954;2023-03-01T04:07:33;102108.31;;;1.78;60.07
818;BME280;391;51.052;6.954;2023-03-01T04:09:36;102115.22;;;1.79;60.07
818;BME280;391;51.052;6.954;2023-03-01T04:11:39;102104.03;;;1.79;60.16
818;BME280;391;51.052;6.954;2023-03-01T04:13:43;102093.00;;;1.80;59.94
818;BME280;391;51.052;6.954;2023-03-01T04:15:48;102089.41;;;1.78;59.97
818;BME280;391;51.052;6.954;2023-03-01T04:17:53;102097.22;;;1.79;60.08
818;BME280;391;51.052;6.954;2023-03-01T04:20:01;102097.75;;;1.85;59.81
818;BME280;391;51.052;6.954;2023-03-01T04:22:07;102099.31;;;1.83;59.98
818;BME280;391;51.052;6.954;2023-03-01T04:24:16;102100.22;;;1.84;59.94
818;BME280;391;51.052;6.954;2023-03-01T04:26:20;102096.22;;;1.87;60.07
818;BME280;391;51.052;6.954;2023-03-01T04:28:25;102095.19;;;1.85;60.00
818;BME280;391;51.052;6.954;2023-03-01T04:30:29;102093.41;;;1.84;60.00
818;BME280;391;51.052;6.954;2023-03-01T04:32:37;102086.59;;;1.85;59.86
818;BME280;391;51.052;6.954;2023-03-01T04:34:41;102078.47;;;1.80;60.02
818;BME280;391;51.052;6.954;2023-03-01T04:36:44;102054.94;;;1.55;60.11
818;BME280;391;51.052;6.954;2023-03-01T04:38:48;102042.44;;;1.40;60.13
818;BME280;391;51.052;6.954;2023-03-01T04:40:53;102091.47;;;1.72;60.07
818;BME280;391;51.052;6.954;2023-03-01T04:42:56;102096.34;;;1.79;60.00
818;BME280;391;51.052;6.954;2023-03-01T04:45:00;102094.28;;;1.75;59.99
818;BME280;391;51.052;6.954;2023-03-01T04:47:03;102096.88;;;1.75;59.88
818;BME280;391;51.052;6.954;2023-03-01T04:49:07;102094.28;;;1.75;59.68
818;BME280;391;51.052;6.954;2023-03-01T04:51:11;102086.19;;;1.70;59.88
818;BME280;391;51.052;6.954;2023-03-01T04:53:16;102076.41;;;1.66;60.05
818;BME280;391;51.052;6.954;2023-03-01T04:55:20;102082.81;;;1.61;60.08
818;BME280;391;51.052;6.954;2023-03-01T04:57:25;102053.91;;;1.43;60.19
818;BME280;391;51.052;6.954;2023-03-01T04:59:29;102089.78;;;1.72;62.52
818;BME280;391;51.052;6.954;2023-03-01T05:01:32;102086.44;;;1.83;61.79
818;BME280;391;51.052;6.954;2023-03-01T05:03:37;102074.91;;;1.78;61.48
818;BME280;391;51.052;6.954;2023-03-01T05:05:42;102059.31;;;1.67;61.16
818;BME280;391;51.052;6.954;2023-03-01T05:07:46;102067.28;;;1.70;60.96
818;BME280;391;51.052;6.954;2023-03-01T05:09:49;102073.97;;;1.68;61.29
818;BME280;391;51.052;6.954;2023-03-01T05:11:56;102076.41;;;1.66;61.21
818;BME280;391;51.052;6.954;2023-03-01T05:14:00;102076.28;;;1.65;60.96
818;BME280;391;51.052;6.954;2023-03-01T05:16:05;102071.53;;;1.59;60.84
818;BME280;391;51.052;6.954;2023-03-01T05:18:13;102079.34;;;1.60;60.94
818;BME280;391;51.052;6.954;2023-03-01T05:20:18;102073.69;;;1.54;61.07
818;BME280;391;51.052;6.954;2023-03-01T05:22:25;102098.22;;;1.51;60.90
818;BME280;391;51.052;6.954;2023-03-01T05:24:29;102088.44;;;1.47;60.98
818;BME280;391;51.052;6.954;2023-03-01T05:26:34;102080.19;;;1.41;61.06
818;BME280;391;51.052;6.954;2023-03-01T05:28:42;102083.28;;;1.37;61.41
818;BME280;391;51.052;6.954;2023-03-01T05:30:47;102077.78;;;1.42;61.08
818;BME280;391;51.052;6.954;2023-03-01T05:32:53;102066.84;;;1.45;61.49
818;BME280;391;51.052;6.954;2023-03-01T05:34:58;102081.66;;;1.57;61.56
818;BME280;391;51.052;6.954;2023-03-01T05:37:01;102078.31;;;1.58;61.36
818;BME280;391;51.052;6.954;2023-03-01T05:39:05;102075.13;;;1.61;61.15
818;BME280;391;51.052;6.954;2023-03-01T05:41:14;102080.41;;;1.63;61.15
818;BME280;391;51.052;6.954;2023-03-01T05:43:18;102045.94;;;1.40;61.11
818;BME280;391;51.052;6.954;2023-03-01T05:45:23;102084.50;;;1.60;60.76
818;BME280;391;51.052;6.954;2023-03-01T05:47:28;102060.47;;;1.50;60.94
818;BME280;391;51.052;6.954;2023-03-01T05:49:33;102075.25;;;1.52;60.80
818;BME280;391;51.052;6.954;2023-03-01T05:51:40;102060.66;;;1.33;60.85
818;BME280;391;51.052;6.954;2023-03-01T05:53:43;102069.66;;;1.38;60.86
818;BME280;391;51.052;6.954;2023-03-01T05:55:47;102080.19;;;1.41;60.51
818;BME280;391;51.052;6.954;2023-03-01T05:57:51;102059.88;;;1.24;60.77
818;BME280;391;51.052;6.954;2023-03-01T05:59:55;102074.69;;;1.36;60.91
818;BME280;391;51.052;6.954;2023-03-01T06:01:58;102071.59;;;1.30;60.98
818;BME280;391;51.052;6.954;2023-03-01T06:04:04;102068.34;;;1.23;61.53
818;BME280;391;51.052;6.954;2023-03-01T06:06:07;102072.06;;;1.26;60.95
818;BME280;391;51.052;6.954;2023-03-01T06:08:12;102077.44;;;1.19;61.35
818;BME280;391;51.052;6.954;2023-03-01T06:10:16;102065.09;;;1.15;61.73
818;BME280;391;51.052;6.954;2023-03-01T06:12:20;102067.31;;;1.21;61.71
818;BME280;391;51.052;6.954;2023-03-01T06:14:23;102071.81;;;1.23;61.71
818;BME280;391;51.052;6.954;2023-03-01T06:16:27;102020.50;;;0.94;61.47
818;BME280;391;51.052;6.954;2023-03-01T06:18:31;102059.72;;;1.22;61.84
818;BME280;391;51.052;6.954;2023-03-01T06:20:36;102051.50;;;1.16;61.80
818;BME280;391;51.052;6.954;2023-03-01T06:22:40;102013.78;;;0.86;62.15
818;BME280;391;51.052;6.954;2023-03-01T06:24:43;102075.09;;;1.12;61.99
818;BME280;391;51.052;6.954;2023-03-01T06:26:47;102073.06;;;1.08;62.22
818;BME280;391;51.052;6.954;2023-03-01T06:28:50;102061.94;;;0.99;62.40
818;BME280;391;51.052;6.954;2023-03-01T06:30:54;102061.03;;;0.88;62.60
818;BME280;391;51.052;6.954;2023-03-01T06:32:57;102063.06;;;0.82;62.68
818;BME280;391;51.052;6.954;2023-03-01T06:35:04;102065.97;;;0.77;63.23
818;BME280;391;51.052;6.954;2023-03-01T06:37:09;102068.03;;;0.81;63.15
818;BME280;391;51.052;6.954;2023-03-01T06:39:13;102072.53;;;0.83;63.46
818;BME280;391;51.052;6.954;2023-03-01T06:41:16;102069.75;;;0.90;63.14
818;BME280;391;51.052;6.954;2023-03-01T06:43:20;102067.88;;;0.98;63.73
818;BME280;391;51.052;6.954;2023-03-01T06:45:24;102076.09;;;1.04;63.22
818;BME280;391;51.052;6.954;2023-03-01T06:47:27;102061.47;;;1.03;63.12
818;BME280;391;51.052;6.954;2023-03-01T06:49:31;102046.00;;;0.93;63.58
818;BME280;391;51.052;6.954;2023-03-01T06:51:35;102070.22;;;1.05;63.04
818;BME280;391;51.052;6.954;2023-03-01T06:53:41;102059.31;;;1.08;63.25
818;BME280;391;51.052;6.954;2023-03-01T06:55:44;102067.91;;;1.08;63.43
818;BME280;391;51.052;6.954;2023-03-01T06:57:47;102064.19;;;1.04;63.79
818;BME280;391;51.052;6.954;2023-03-01T06:59:51;102059.31;;;1.08;63.69
818;BME280;391;51.052;6.954;2023-03-01T07:01:54;102057.13;;;1.12;63.48
818;BME280;391;51.052;6.954;2023-03-01T07:03:58;102056.91;;;1.19;63.58
818;BME280;391;51.052;6.954;2023-03-01T07:06:01;102051.03;;;2.51;87.16
818;BME280;391;51.052;6.954;2023-03-01T07:08:05;101950.69;;;3.16;79.78
818;BME280;391;51.052;6.954;2023-03-01T07:10:11;102064.84;;;3.59;73.07
818;BME280;391;51.052;6.954;2023-03-01T07:12:15;102060.31;;;3.13;71.13
818;BME280;391;51.052;6.954;2023-03-01T07:14:19;102059.28;;;2.89;70.58
818;BME280;391;51.052;6.954;2023-03-01T07:16:22;102056.00;;;2.70;69.87
818;BME280;391;51.052;6.954;2023-03-01T07:18:26;102054.88;;;2.56;69.55
818;BME280;391;51.052;6.954;2023-03-01T07:20:30;102052.47;;;2.48;69.17
818;BME280;391;51.052;6.954;2023-03-01T07:22:33;102046.03;;;2.43;68.23
818;BME280;391;51.052;6.954;2023-03-01T07:24:36;101934.78;;;1.73;67.80
818;BME280;391;51.052;6.954;2023-03-01T07:26:41;102051.72;;;2.39;67.41
818;BME280;391;51.052;6.954;2023-03-01T07:28:45;102055.06;;;2.38;67.22
818;BME280;391;51.052;6.954;2023-03-01T07:30:48;102015.72;;;2.19;66.44
818;BME280;391;51.052;6.954;2023-03-01T07:32:52;102055.06;;;2.38;66.33
818;BME280;391;51.052;6.954;2023-03-01T07:34:56;102057.63;;;2.28;66.11
818;BME280;391;51.052;6.954;2023-03-01T07:37:00;102059.03;;;2.34;65.93
818;BME280;391;51.052;6.954;2023-03-01T07:39:03;102057.13;;;2.42;65.39
818;BME280;391;51.052;6.954;2023-03-01T07:41:07;101927.31;;;1.76;65.48
818;BME280;391;51.052;6.954;2023-03-01T07:43:12;102018.78;;;2.35;64.88
818;BME280;391;51.052;6.954;2023-03-01T07:45:15;102056.28;;;2.63;64.67
818;BME280;391;51.052;6.954;2023-03-01T07:47:19;102052.28;;;2.66;64.34
818;BME280;391;51.052;6.954;2023-03-01T07:49:22;102060.41;;;2.71;64.04
818;BME280;391;51.052;6.954;2023-03-01T07:51:28;102061.66;;;2.76;63.86
818;BME280;391;51.052;6.954;2023-03-01T07:53:32;102063.81;;;2.82;63.49
818;BME280;391;51.052;6.954;2023-03-01T07:55:36;102040.56;;;2.70;63.20
818;BME280;391;51.052;6.954;2023-03-01T07:57:39;102063.28;;;2.86;62.63
818;BME280;391;51.052;6.954;2023-03-01T07:59:44;102048.09;;;2.89;62.62
818;BME280;391;51.052;6.954;2023-03-01T08:01:47;102052.72;;;2.93;61.89
818;BME280;391;51.052;6.954;2023-03-01T08:03:51;102035.13;;;2.77;61.95
818;BME280;391;51.052;6.954;2023-03-01T08:05:54;102054.34;;;3.02;61.79
818;BME280;391;51.052;6.954;2023-03-01T08:07:58;102056.78;;;3.01;61.34
818;BME280;391;51.052;6.954;2023-03-01T08:10:01;102054.59;;;3.05;60.96
818;BME280;391;51.052;6.954;2023-03-01T08:12:05;102046.25;;;2.98;61.15
818;BME280;391;51.052;6.954;2023-03-01T08:14:09;102045.09;;;2.94;60.57
818;BME280;391;51.052;6.954;2023-03-01T08:16:15;102052.28;;;2.98;59.99
818;BME280;391;51.052;6.954;2023-03-01T08:18:20;102042.84;;;2.77;59.78
818;BME280;391;51.052;6.954;2023-03-01T08:20:24;102042.38;;;2.71;60.39
818;BME280;391;51.052;6.954;2023-03-01T08:22:27;102038.50;;;2.66;60.39
818;BME280;391;51.052;6.954;2023-03-01T08:24:30;102042.88;;;2.67;60.63
818;BME280;391;51.052;6.954;2023-03-01T08:26:34;102045.06;;;2.73;60.86
818;BME280;391;51.052;6.954;2023-03-01T08:28:39;102042.06;;;2.78;60.44
818;BME280;391;51.052;6.954;2023-03-01T08:30:43;102040.84;;;2.95;60.76
818;BME280;391;51.052;6.954;2023-03-01T08:32:47;102045.81;;;3.03;60.47
818;BME280;391;51.052;6.954;2023-03-01T08:34:51;102051.53;;;3.21;59.85
818;BME280;391;51.052;6.954;2023-03-01T08:36:54;102049.16;;;3.34;60.14
818;BME280;391;51.052;6.954;2023-03-01T08:38:58;102042.44;;;3.36;59.52
818;BME280;391;51.052;6.954;2023-03-01T08:41:03;102028.69;;;3.26;59.26
818;BME280;391;51.052;6.954;2023-03-01T08:43:06;101981.06;;;2.99;58.94
818;BME280;391;51.052;6.954;2023-03-01T08:45:10;102056.09;;;3.35;58.83
818;BME280;391;51.052;6.954;2023-03-01T08:47:15;102049.72;;;3.42;58.48
818;BME280;391;51.052;6.954;2023-03-01T08:49:20;102054.78;;;3.40;57.45
818;BME280;391;51.052;6.954;2023-03-01T08:51:24;102056.22;;;3.37;56.41
818;BME280;391;51.052;6.954;2023-03-01T08:53:28;102048.72;;;3.40;57.31
818;BME280;391;51.052;6.954;2023-03-01T08:55:32;102056.03;;;3.45;57.08
818;BME280;391;51.052;6.954;2023-03-01T08:57:35;102035.31;;;3.44;56.57
818;BME280;391;51.052;6.954;2023-03-01T08:59:38;102048.38;;;3.57;55.78
818;BME280;391;51.052;6.954;2023-03-01T09:01:43;102050.38;;;3.61;55.18
818;BME280;391;51.052;6.954;2023-03-01T09:03:46;102048.41;;;3.68;55.86
818;BME280;391;51.052;6.954;2023-03-01T09:05:52;102043.28;;;3.80;56.79
818;BME280;391;51.052;6.954;2023-03-01T09:07:57;102040.09;;;3.94;56.20
818;BME280;391;51.052;6.954;2023-03-01T09:10:00;102034.16;;;4.07;56.43
818;BME280;391;51.052;6.954;2023-03-01T09:12:04;102043.59;;;4.06;54.83
818;BME280;391;51.052;6.954;2023-03-01T09:14:07;102041.75;;;3.94;54.56
818;BME280;391;51.052;6.954;2023-03-01T09:16:13;102041.44;;;4.01;55.59
818;BME280;391;51.052;6.954;2023-03-01T09:18:17;102038.66;;;4.09;54.66
818;BME280;391;51.052;6.954;2023-03-01T09:20:20;102047.66;;;4.14;53.50
818;BME280;391;51.052;6.954;2023-03-01T09:22:25;102040.91;;;4.16;53.06
818;BME280;391;51.052;6.954;2023-03-01T09:24:29;102037.97;;;4.12;53.33
818;BME280;391;51.052;6.954;2023-03-01T09:26:32;102035.53;;;4.13;53.09
818;BME280;391;51.052;6.954;2023-03-01T09:28:36;102037.56;;;4.17;52.68
818;BME280;391;51.052;6.954;2023-03-01T09:30:40;102019.81;;;4.22;52.47
818;BME280;391;51.052;6.954;2023-03-01T09:32:43;102034.53;;;4.35;52.81
818;BME280;391;51.052;6.954;2023-03-01T09:34:46;102026.38;;;4.40;52.66
818;BME280;391;51.052;6.954;2023-03-01T09:37:07;102025.91;;;4.46;52.77
818;BME280;391;51.052;6.954;2023-03-01T09:39:11;102025.47;;;4.40;51.73
818;BME280;391;51.052;6.954;2023-03-01T09:41:29;102017.03;;;4.42;52.28
818;BME280;391;51.052;6.954;2023-03-01T09:43:43;102019.38;;;4.51;52.02
818;BME280;391;51.052;6.954;2023-03-01T09:45:49;102011.53;;;4.49;51.29
818;BME280;391;51.052;6.954;2023-03-01T09:47:56;102001.53;;;4.54;51.86
818;BME280;391;51.052;6.954;2023-03-01T09:50:05;102009.28;;;4.54;49.85
818;BME280;391;51.052;6.954;2023-03-01T09:52:19;102006.72;;;4.65;50.41
818;BME280;391;51.052;6.954;2023-03-01T09:54:26;102011.09;;;4.78;50.40
818;BME280;391;51.052;6.954;2023-03-01T09:56:33;102003.84;;;4.86;49.88
818;BME280;391;51.052;6.954;2023-03-01T09:58:43;102012.25;;;4.95;49.31
818;BME280;391;51.052;6.954;2023-03-01T10:00:50;102006.41;;;5.09;49.32
818;BME280;391;51.052;6.954;2023-03-01T10:02:58;102010.25;;;5.02;48.90
818;BME280;391;51.052;6.954;2023-03-01T10:05:12;102006.53;;;5.10;48.78
818;BME280;391;51.052;6.954;2023-03-01T10:07:25;102005.22;;;5.28;49.24
818;BME280;391;51.052;6.954;2023-03-01T10:09:34;102003.34;;;5.51;48.53
818;BME280;391;51.052;6.954;2023-03-01T10:11:41;102009.41;;;5.51;47.37
818;BME280;391;51.052;6.954;2023-03-01T10:13:51;102013.75;;;5.64;47.91
818;BME280;391;51.052;6.954;2023-03-01T10:16:01;102007.53;;;5.62;47.57
818;BME280;391;51.052;6.954;2023-03-01T10:18:12;102009.25;;;5.61;47.05
818;BME280;391;51.052;6.954;2023-03-01T10:20:20;101998.69;;;5.83;46.59
818;BME280;391;51.052;6.954;2023-03-01T10:22:27;102009.50;;;6.02;45.75
818;BME280;391;51.052;6.954;2023-03-01T10:24:35;101992.16;;;5.88;45.76
818;BME280;391;51.052;6.954;2023-03-01T10:26:47;101989.97;;;5.94;45.19
818;BME280;391;51.052;6.954;2023-03-01T10:28:58;101991.09;;;6.11;45.32
818;BME280;391;51.052;6.954;2023-03-01T10:31:04;101987.22;;;6.17;44.63
818;BME280;391;51.052;6.954;2023-03-01T10:33:16;101982.06;;;6.30;45.48
818;BME280;391;51.052;6.954;2023-03-01T10:35:22;101986.66;;;6.48;45.26
818;BME280;391;51.052;6.954;2023-03-01T10:37:26;101981.69;;;6.51;45.07
818;BME280;391;51.052;6.954;2023-03-01T10:39:30;101952.88;;;6.46;44.51
818;BME280;391;51.052;6.954;2023-03-01T10:41:51;101981.16;;;6.82;44.81
818;BME280;391;51.052;6.954;2023-03-01T10:43:57;101973.47;;;7.12;44.40
818;BME280;391;51.052;6.954;2023-03-01T10:46:02;101974.09;;;7.21;43.68
818;BME280;391;51.052;6.954;2023-03-01T10:48:12;101969.38;;;7.15;43.07
818;BME280;391;51.052;6.954;2023-03-01T10:50:20;101964.97;;;7.27;43.45
818;BME280;391;51.052;6.954;2023-03-01T10:52:27;101958.50;;;7.49;43.23
818;BME280;391;51.052;6.954;2023-03-01T10:54:32;101921.81;;;7.57;43.00
818;BME280;391;51.052;6.954;2023-03-01T10:56:47;101966.69;;;7.98;42.32
818;BME280;391;51.052;6.954;2023-03-01T10:59:00;101896.56;;;7.69;41.23
818;BME280;391;51.052;6.954;2023-03-01T11:01:05;101954.16;;;8.06;41.06
818;BME280;391;51.052;6.954;2023-03-01T11:03:12;101957.28;;;8.15;40.96
818;BME280;391;51.052;6.954;2023-03-01T11:05:22;101912.97;;;8.12;41.14
818;BME280;391;51.052;6.954;2023-03-01T11:07:27;101955.59;;;8.30;40.01
818;BME280;391;51.052;6.954;2023-03-01T11:09:32;101927.75;;;8.13;39.95
818;BME280;391;51.052;6.954;2023-03-01T11:11:40;101948.88;;;8.34;40.04
818;BME280;391;51.052;6.954;2023-03-01T11:13:51;101944.88;;;8.39;39.63
818;BME280;391;51.052;6.954;2023-03-01T11:15:59;101937.69;;;8.66;39.58
818;BME280;391;51.052;6.954;2023-03-01T11:18:03;101922.06;;;8.80;39.46
818;BME280;391;51.052;6.954;2023-03-01T11:20:24;101916.88;;;8.80;39.93
818;BME280;391;51.052;6.954;2023-03-01T11:22:30;101875.16;;;8.79;39.57
818;BME280;391;51.052;6.954;2023-03-01T11:24:40;101915.91;;;9.27;39.56
818;BME280;391;51.052;6.954;2023-03-01T11:26:47;101874.50;;;9.47;39.20
818;BME280;391;51.052;6.954;2023-03-01T11:28:58;101911.34;;;9.89;37.92
818;BME280;391;51.052;6.954;2023-03-01T11:31:07;101883.34;;;9.85;37.55
818;BME280;391;51.052;6.954;2023-03-01T11:33:19;101908.41;;;10.17;36.96
818;BME280;391;51.052;6.954;2023-03-01T11:35:27;101912.19;;;9.72;36.87
818;BME280;391;51.052;6.954;2023-03-01T11:37:36;101862.00;;;9.24;37.25
818;BME280;391;51.052;6.954;2023-03-01T11:39:44;101904.13;;;9.33;38.08
818;BME280;391;51.052;6.954;2023-03-01T11:41:56;101904.38;;;9.72;37.95